createdAt,value
2018-07-14T00:00:24.506Z,15.90
2018-07-14T00:02:52.590Z,15.80
2018-07-14T00:05:20.818Z,15.80
2018-07-14T00:07:49.001Z,16.10
2018-07-14T00:10:17.093Z,16.00
2018-07-14T00:12:45.182Z,16.00
2018-07-14T00:15:13.257Z,15.80
2018-07-14T00:17:41.336Z,15.90
2018-07-14T00:20:09.405Z,16.00
2018-07-14T00:22:37.493Z,16.10
2018-07-14T00:25:06.658Z,15.90
2018-07-14T00:27:34.905Z,15.90
2018-07-14T00:30:02.986Z,15.90
2018-07-14T00:32:31.081Z,16.00
2018-07-14T00:34:59.167Z,16.00
2018-07-14T00:37:27.249Z,15.90
2018-07-14T00:39:55.561Z,15.90
2018-07-14T00:42:23.737Z,16.00
2018-07-14T00:44:51.869Z,16.00
2018-07-14T00:47:19.950Z,16.10
2018-07-14T00:49:48.024Z,16.10
2018-07-14T00:52:16.301Z,16.10
2018-07-14T00:54:44.369Z,16.00
2018-07-14T00:57:12.463Z,16.10
2018-07-14T00:59:40.538Z,16.10
2018-07-14T01:02:08.809Z,16.00
2018-07-14T01:04:36.881Z,16.10
2018-07-14T01:07:04.974Z,16.10
2018-07-14T01:09:33.204Z,16.10
2018-07-14T01:14:29.170Z,16.00
2018-07-14T01:16:57.253Z,15.80
2018-07-14T01:19:25.330Z,15.90
2018-07-14T01:21:53.440Z,15.90
2018-07-14T01:24:21.632Z,15.90
2018-07-14T01:26:49.698Z,16.00
2018-07-14T01:29:17.762Z,16.10
2018-07-14T01:31:45.841Z,16.40
2018-07-14T01:34:13.913Z,16.40
2018-07-14T01:36:41.989Z,16.30
2018-07-14T01:39:10.081Z,16.60
2018-07-14T01:41:38.192Z,16.60
2018-07-14T01:44:06.304Z,16.60
2018-07-14T01:46:34.377Z,16.60
2018-07-14T01:49:02.469Z,16.50
2018-07-14T01:51:30.558Z,16.50
2018-07-14T01:53:58.637Z,16.50
2018-07-14T01:56:26.717Z,16.60
2018-07-14T01:58:54.810Z,16.90
2018-07-14T02:01:23.201Z,16.80
2018-07-14T02:03:51.281Z,16.80
2018-07-14T02:06:19.361Z,16.90
2018-07-14T02:08:47.445Z,16.90
2018-07-14T02:11:15.513Z,16.90
2018-07-14T02:13:43.617Z,17.10
2018-07-14T02:16:11.698Z,17.30
2018-07-14T02:18:39.785Z,17.20
2018-07-14T02:21:08.160Z,17.30
2018-07-14T02:26:04.146Z,17.50
2018-07-14T02:28:32.241Z,17.40
2018-07-14T02:31:00.309Z,17.40
2018-07-14T02:33:28.394Z,17.70
2018-07-14T02:35:56.473Z,17.80
2018-07-14T02:38:24.562Z,17.90
2018-07-14T02:40:52.646Z,17.90
2018-07-14T02:43:20.729Z,17.90
2018-07-14T02:45:48.805Z,18.00
2018-07-14T02:48:16.933Z,18.00
2018-07-14T02:50:45.239Z,18.20
2018-07-14T02:53:13.317Z,18.20
2018-07-14T02:55:41.409Z,18.10
2018-07-14T02:58:09.511Z,18.10
2018-07-14T03:03:05.704Z,18.60
2018-07-14T03:05:33.772Z,18.80
2018-07-14T03:08:01.855Z,19.10
2018-07-14T03:10:29.925Z,18.80
2018-07-14T03:12:58.051Z,18.70
2018-07-14T03:15:26.081Z,18.70
2018-07-14T03:17:54.208Z,18.80
2018-07-14T03:20:22.272Z,18.70
2018-07-14T03:22:50.364Z,18.90
2018-07-14T03:25:18.458Z,19.00
2018-07-14T03:27:46.553Z,19.10
2018-07-14T03:30:14.661Z,19.00
2018-07-14T03:32:42.733Z,19.20
2018-07-14T03:35:10.809Z,19.40
2018-07-14T03:37:38.889Z,19.20
2018-07-14T03:40:07.269Z,19.20
2018-07-14T03:42:35.354Z,19.40
2018-07-14T03:45:03.577Z,19.50
2018-07-14T03:47:31.679Z,19.50
2018-07-14T03:49:59.771Z,19.40
2018-07-14T03:52:27.849Z,19.50
2018-07-14T03:54:55.937Z,19.40
2018-07-14T03:57:24.022Z,19.60
2018-07-14T03:59:52.118Z,19.60
2018-07-14T04:02:20.205Z,19.60
2018-07-14T04:04:48.282Z,19.80
2018-07-14T04:07:16.361Z,19.80
2018-07-14T04:09:44.454Z,19.60
2018-07-14T04:12:12.526Z,19.80
2018-07-14T04:14:40.661Z,19.80
2018-07-14T04:17:08.674Z,19.80
2018-07-14T04:22:04.725Z,20.40
2018-07-14T04:24:32.813Z,20.00
2018-07-14T04:27:01.017Z,20.10
2018-07-14T04:29:29.201Z,20.10
2018-07-14T04:31:57.292Z,20.00
2018-07-14T04:34:25.384Z,20.10
2018-07-14T04:36:53.494Z,20.20
2018-07-14T04:39:21.573Z,20.30
2018-07-14T04:41:50.703Z,20.30
2018-07-14T04:44:18.797Z,20.00
2018-07-14T04:46:46.886Z,20.30
2018-07-14T04:49:15.117Z,20.60
2018-07-14T04:51:43.206Z,20.60
2018-07-14T04:54:11.281Z,20.50
2018-07-14T04:59:07.285Z,20.20
2018-07-14T05:01:35.362Z,20.60
2018-07-14T05:04:03.462Z,20.40
2018-07-14T05:06:31.629Z,20.50
2018-07-14T05:08:59.625Z,20.50
2018-07-14T05:11:27.721Z,20.80
2018-07-14T05:13:55.813Z,20.90
2018-07-14T05:16:23.886Z,20.50
2018-07-14T05:18:51.966Z,20.80
2018-07-14T05:21:20.052Z,20.90
2018-07-14T05:23:48.137Z,20.50
2018-07-14T05:28:44.454Z,20.20
2018-07-14T05:31:12.537Z,20.10
2018-07-14T05:33:40.612Z,19.70
2018-07-14T05:36:08.697Z,20.50
2018-07-14T05:38:36.793Z,20.00
2018-07-14T05:41:04.906Z,19.80
2018-07-14T05:43:32.994Z,20.10
2018-07-14T05:46:01.084Z,20.70
2018-07-14T05:50:57.081Z,21.50
2018-07-14T05:53:25.153Z,21.10
2018-07-14T05:55:53.241Z,21.10
2018-07-14T05:58:21.323Z,21.50
2018-07-14T06:00:49.413Z,21.50
2018-07-14T06:03:17.497Z,21.50
2018-07-14T06:05:45.581Z,22.70
2018-07-14T06:08:13.662Z,23.70
2018-07-14T06:10:41.769Z,23.70
2018-07-14T06:15:37.782Z,24.50
2018-07-14T06:18:05.900Z,23.80
2018-07-14T06:20:33.978Z,24.80
2018-07-14T06:23:02.072Z,24.10
2018-07-14T06:25:30.166Z,24.60
2018-07-14T06:27:58.242Z,24.40
2018-07-14T06:30:26.330Z,25.00
2018-07-14T06:32:54.397Z,25.40
2018-07-14T06:35:22.492Z,25.60
2018-07-14T06:40:18.541Z,23.20
2018-07-14T06:42:46.629Z,25.40
2018-07-14T06:45:14.714Z,25.10
2018-07-14T06:47:42.785Z,25.90
2018-07-14T06:50:10.882Z,25.80
2018-07-14T06:52:38.997Z,25.50
2018-07-14T06:55:07.348Z,25.30
2018-07-14T06:57:35.417Z,24.20
2018-07-14T07:00:03.549Z,22.10
2018-07-14T07:02:31.613Z,22.90
2018-07-14T07:04:59.876Z,22.80
2018-07-14T07:07:27.988Z,23.10
2018-07-14T07:09:56.061Z,22.10
2018-07-14T07:12:24.185Z,22.40
2018-07-14T07:14:52.467Z,22.10
2018-07-14T07:17:20.561Z,20.90
2018-07-14T07:19:48.648Z,20.40
2018-07-14T07:22:16.749Z,21.20
2018-07-14T07:24:44.842Z,20.60
2018-07-14T07:27:12.914Z,20.80
2018-07-14T07:29:41.023Z,21.50
2018-07-14T07:32:09.385Z,20.90
2018-07-14T07:34:37.504Z,20.80
2018-07-14T07:37:05.843Z,20.60
2018-07-14T07:39:33.936Z,20.00
2018-07-14T07:42:02.029Z,19.40
2018-07-14T07:44:30.122Z,19.90
2018-07-14T07:46:58.197Z,19.40
2018-07-14T07:49:26.292Z,19.00
2018-07-14T07:51:54.449Z,18.40
2018-07-14T07:54:22.521Z,18.70
2018-07-14T07:56:50.615Z,18.40
2018-07-14T07:59:18.701Z,17.80
2018-07-14T08:01:46.801Z,17.40
2018-07-14T08:06:42.749Z,17.30
2018-07-14T08:09:10.836Z,16.80
2018-07-14T08:11:38.930Z,16.70
2018-07-14T08:14:07.005Z,16.40
2018-07-14T08:16:35.125Z,18.70
2018-07-14T08:19:03.209Z,17.70
2018-07-14T08:21:31.319Z,17.80
2018-07-14T08:23:59.389Z,17.90
2018-07-14T08:26:27.489Z,17.40
2018-07-14T08:28:55.565Z,16.80
2018-07-14T08:33:51.590Z,16.80
2018-07-14T08:36:19.674Z,16.50
2018-07-14T08:38:47.746Z,16.70
2018-07-14T08:41:15.825Z,19.70
2018-07-14T08:43:43.995Z,18.50
2018-07-14T08:46:12.018Z,18.30
2018-07-14T08:48:40.114Z,17.50
2018-07-14T08:51:08.241Z,16.90
2018-07-14T08:56:04.230Z,17.00
2018-07-14T08:58:32.469Z,16.60
2018-07-14T09:01:00.869Z,16.00
2018-07-14T09:03:29.011Z,16.60
2018-07-14T09:05:57.416Z,16.20
2018-07-14T09:08:25.689Z,17.80
2018-07-14T09:10:53.777Z,17.50
2018-07-14T09:13:22.133Z,16.70
2018-07-14T09:15:50.208Z,16.00
2018-07-14T09:18:18.326Z,16.30
2018-07-14T09:20:46.649Z,15.30
2018-07-14T09:23:14.747Z,13.70
2018-07-14T09:25:42.827Z,13.70
2018-07-14T09:28:10.909Z,14.80
2018-07-14T09:30:38.993Z,17.00
2018-07-14T09:33:07.092Z,14.70
2018-07-14T09:35:35.170Z,14.70
2018-07-14T09:38:03.278Z,13.20
2018-07-14T09:40:31.345Z,13.10
2018-07-14T09:42:59.437Z,13.70
2018-07-14T09:45:27.518Z,14.80
2018-07-14T09:47:55.597Z,14.60
2018-07-14T09:50:23.665Z,12.90
2018-07-14T09:52:51.751Z,12.00
2018-07-14T09:55:19.854Z,12.40
2018-07-14T09:57:47.912Z,11.40
2018-07-14T10:00:21.325Z,11.50
2018-07-14T10:02:49.400Z,11.90
2018-07-14T10:05:17.482Z,11.60
2018-07-14T10:07:45.589Z,11.60
2018-07-14T10:10:13.801Z,10.50
2018-07-14T10:12:41.908Z,10.40
2018-07-14T10:15:10.021Z,10.50
2018-07-14T10:17:38.153Z,13.40
2018-07-14T10:20:06.393Z,12.30
2018-07-14T10:22:34.482Z,10.50
2018-07-14T10:25:02.594Z,12.90
2018-07-14T10:27:30.641Z,11.90
2018-07-14T10:29:58.717Z,10.00
2018-07-14T10:32:26.805Z,8.40
2018-07-14T10:34:54.876Z,9.20
2018-07-14T10:37:22.978Z,7.00
2018-07-14T10:39:51.045Z,7.60
2018-07-14T10:42:19.169Z,8.10
2018-07-14T10:44:47.213Z,8.20
2018-07-14T10:47:15.301Z,7.50
2018-07-14T10:49:43.402Z,7.30
2018-07-14T10:52:11.522Z,6.20
2018-07-14T10:54:39.593Z,6.90
2018-07-14T10:57:07.693Z,6.50
2018-07-14T10:59:35.772Z,8.70
2018-07-14T11:02:03.930Z,6.10
2018-07-14T11:04:32.016Z,6.00
2018-07-14T11:07:00.085Z,3.90
2018-07-14T11:11:56.069Z,5.30
2018-07-14T11:14:24.133Z,4.50
2018-07-14T11:16:52.213Z,4.60
2018-07-14T11:19:20.305Z,4.60
2018-07-14T11:21:48.393Z,4.50
2018-07-14T11:24:16.485Z,2.40
2018-07-14T11:26:44.575Z,2.80
2018-07-14T11:29:12.755Z,3.70
2018-07-14T11:31:41.028Z,5.30
2018-07-14T11:34:09.131Z,4.20
2018-07-14T11:36:37.221Z,4.80
2018-07-14T11:39:05.650Z,4.80
2018-07-14T11:41:33.961Z,3.70
2018-07-14T11:44:02.075Z,3.40
2018-07-14T11:46:30.167Z,3.90
2018-07-14T11:48:58.246Z,5.10
2018-07-14T11:51:26.330Z,5.00
2018-07-14T11:53:54.422Z,4.40
2018-07-14T11:56:22.509Z,4.60
2018-07-14T11:58:50.597Z,5.20
2018-07-14T12:01:18.680Z,4.20
2018-07-14T12:03:46.749Z,1.00
2018-07-14T12:06:14.829Z,1.10
2018-07-14T12:08:43.138Z,1.40
2018-07-14T12:11:11.410Z,3.10
2018-07-14T12:13:39.481Z,4.70
2018-07-14T12:16:07.682Z,4.50
2018-07-14T12:18:35.761Z,2.50
2018-07-14T12:21:04.854Z,1.90
2018-07-14T12:23:32.984Z,1.30
2018-07-14T12:26:01.054Z,2.10
2018-07-14T12:28:29.190Z,1.00
2018-07-14T12:30:57.269Z,1.60
2018-07-14T12:33:25.392Z,1.00
2018-07-14T12:35:53.468Z,1.00
2018-07-14T12:38:21.556Z,1.00
2018-07-14T12:40:49.717Z,1.00
2018-07-14T12:43:17.898Z,1.00
2018-07-14T12:45:45.955Z,1.80
2018-07-14T12:48:14.214Z,2.40
2018-07-14T12:50:42.305Z,1.00
2018-07-14T12:53:10.391Z,1.00
2018-07-14T12:55:38.490Z,1.00
2018-07-14T12:58:06.601Z,1.00
2018-07-14T13:00:34.696Z,1.00
2018-07-14T13:03:02.782Z,1.00
2018-07-14T13:07:58.841Z,1.00
2018-07-14T13:10:26.870Z,1.00
2018-07-14T13:12:54.958Z,1.00
2018-07-14T13:15:23.037Z,1.00
2018-07-14T13:17:51.117Z,1.00
2018-07-14T13:20:19.181Z,1.00
2018-07-14T13:22:47.295Z,1.00
2018-07-14T13:25:15.405Z,1.00
2018-07-14T13:27:43.503Z,1.00
2018-07-14T13:30:11.654Z,1.00
2018-07-14T13:32:39.662Z,1.00
2018-07-14T13:35:08.621Z,1.00
2018-07-14T13:37:36.695Z,1.00
2018-07-14T13:40:04.781Z,1.00
2018-07-14T13:42:32.845Z,1.00
2018-07-14T13:45:00.940Z,1.00
2018-07-14T13:47:29.057Z,1.00
2018-07-14T13:49:57.102Z,1.00
2018-07-14T13:52:25.197Z,1.00
2018-07-14T13:54:53.289Z,1.00
2018-07-14T13:59:49.245Z,1.00
2018-07-14T14:02:17.328Z,1.00
2018-07-14T14:04:45.429Z,1.00
2018-07-14T14:07:13.537Z,1.00
2018-07-14T14:09:41.626Z,1.00
2018-07-14T14:12:09.704Z,1.00
2018-07-14T14:14:38.025Z,1.00
2018-07-14T14:17:06.141Z,1.00
2018-07-14T14:19:34.236Z,1.00
2018-07-14T14:22:02.330Z,1.00
2018-07-14T14:24:30.434Z,1.00
2018-07-14T14:26:58.522Z,1.00
2018-07-14T14:29:26.601Z,1.00
2018-07-14T14:31:54.669Z,1.00
2018-07-14T14:34:22.752Z,1.00
2018-07-14T14:36:51.038Z,1.00
2018-07-14T14:39:19.114Z,1.00
2018-07-14T14:41:47.179Z,1.00
2018-07-14T14:44:15.461Z,1.00
2018-07-14T14:46:43.529Z,1.00
2018-07-14T14:49:11.629Z,1.00
2018-07-14T14:51:39.714Z,1.00
2018-07-14T14:54:07.825Z,1.00
2018-07-14T14:56:35.891Z,1.00
2018-07-14T14:59:03.986Z,1.00
2018-07-14T15:01:32.266Z,1.00
2018-07-14T15:04:00.352Z,1.00
2018-07-14T15:06:28.668Z,1.00
2018-07-14T15:08:56.750Z,1.00
2018-07-14T15:11:24.841Z,1.00
2018-07-14T15:13:52.926Z,1.00
2018-07-14T15:16:21.021Z,1.00
2018-07-14T15:18:49.107Z,1.00
2018-07-14T15:21:17.225Z,1.00
2018-07-14T15:23:45.341Z,1.00
2018-07-14T15:26:13.425Z,1.00
2018-07-14T15:28:44.790Z,1.00
2018-07-14T15:31:12.905Z,1.00
2018-07-14T15:33:40.990Z,1.00
2018-07-14T15:36:09.073Z,1.00
2018-07-14T15:38:37.410Z,1.00
2018-07-14T15:41:05.491Z,1.00
2018-07-14T15:43:33.601Z,1.00
2018-07-14T15:46:01.862Z,1.00
2018-07-14T15:48:29.955Z,1.00
2018-07-14T15:53:25.957Z,1.00
2018-07-14T15:55:54.043Z,1.00
2018-07-14T15:58:22.129Z,1.00
2018-07-14T16:00:50.217Z,1.00
2018-07-14T16:03:18.297Z,1.00
2018-07-14T16:05:46.378Z,1.00
2018-07-14T16:08:14.452Z,1.00
2018-07-14T16:10:42.533Z,1.00
2018-07-14T16:13:13.162Z,1.00
2018-07-14T16:15:42.250Z,1.00
2018-07-14T16:18:10.354Z,1.00
2018-07-14T16:20:38.426Z,1.00
2018-07-14T16:23:06.522Z,1.00
2018-07-14T16:25:34.636Z,1.00
2018-07-14T16:28:02.733Z,1.00
2018-07-14T16:30:31.189Z,1.00
2018-07-14T16:32:59.465Z,1.00
2018-07-14T16:35:27.560Z,1.00
2018-07-14T16:37:55.655Z,1.00
2018-07-14T16:40:23.964Z,1.00
2018-07-14T16:42:52.061Z,1.00
2018-07-14T16:45:20.135Z,1.00
2018-07-14T16:47:48.225Z,1.00
2018-07-14T16:50:16.387Z,1.00
2018-07-14T16:52:44.389Z,1.00
2018-07-14T16:55:12.470Z,1.00
2018-07-14T16:57:40.826Z,1.00
2018-07-14T17:00:09.174Z,1.00
2018-07-14T17:02:37.547Z,1.00
2018-07-14T17:05:05.666Z,1.00
2018-07-14T17:07:33.762Z,1.00
2018-07-14T17:10:01.842Z,1.00
2018-07-14T17:12:30.133Z,1.00
2018-07-14T17:14:58.215Z,1.00
2018-07-14T17:17:26.305Z,1.00
2018-07-14T17:19:54.386Z,1.00
2018-07-14T17:22:22.524Z,1.00
2018-07-14T17:24:50.793Z,1.70
2018-07-14T17:27:18.939Z,2.60
2018-07-14T17:32:15.347Z,2.00
2018-07-14T17:34:43.435Z,1.30
2018-07-14T17:37:11.814Z,1.70
2018-07-14T17:42:07.825Z,2.40
2018-07-14T17:44:35.993Z,3.10
2018-07-14T17:47:04.077Z,4.10
2018-07-14T17:49:32.157Z,3.60
2018-07-14T17:52:00.352Z,4.70
2018-07-14T17:54:28.556Z,5.00
2018-07-14T17:56:56.642Z,5.20
2018-07-14T17:59:29.605Z,5.10
2018-07-14T18:01:57.703Z,4.80
2018-07-14T18:04:25.786Z,4.00
2018-07-14T18:06:53.880Z,4.60
2018-07-14T18:09:21.974Z,5.40
2018-07-14T18:14:18.289Z,5.50
2018-07-14T18:16:46.366Z,5.40
2018-07-14T18:19:14.495Z,5.50
2018-07-14T18:21:42.573Z,5.30
2018-07-14T18:24:10.935Z,5.30
2018-07-14T18:26:39.220Z,5.30
2018-07-14T18:29:07.321Z,5.20
2018-07-14T18:31:35.397Z,5.70
2018-07-14T18:34:03.481Z,6.00
2018-07-14T18:36:31.577Z,5.20
2018-07-14T18:38:59.665Z,5.10
2018-07-14T18:41:27.741Z,5.00
2018-07-14T18:43:55.832Z,5.40
2018-07-14T18:46:23.897Z,5.40
2018-07-14T18:48:51.993Z,5.60
2018-07-14T18:51:20.857Z,5.80
2018-07-14T18:53:48.962Z,5.80
2018-07-14T18:56:17.061Z,6.30
2018-07-14T18:58:45.158Z,6.90
2018-07-14T19:01:13.228Z,7.20
2018-07-14T19:03:41.309Z,7.50
2018-07-14T19:06:09.397Z,7.30
2018-07-14T19:08:37.534Z,7.40
2018-07-14T19:11:05.736Z,7.80
2018-07-14T19:13:33.821Z,7.50
2018-07-14T19:16:01.906Z,8.10
2018-07-14T19:18:29.998Z,8.40
2018-07-14T19:20:58.189Z,8.50
2018-07-14T19:23:26.316Z,8.20
2018-07-14T19:25:54.484Z,8.20
2018-07-14T19:28:22.445Z,8.00
2018-07-14T19:30:50.520Z,7.90
2018-07-14T19:33:18.601Z,8.30
2018-07-14T19:35:46.685Z,8.30
2018-07-14T19:38:14.797Z,8.80
2018-07-14T19:40:42.881Z,9.40
2018-07-14T19:43:10.981Z,10.10
2018-07-14T19:45:39.088Z,10.40
2018-07-14T19:48:07.401Z,10.70
2018-07-14T19:50:35.524Z,10.90
2018-07-14T19:53:03.889Z,10.40
2018-07-14T19:55:31.973Z,10.50
2018-07-14T19:58:00.090Z,10.50
2018-07-14T20:00:28.217Z,10.60
2018-07-14T20:05:24.237Z,11.30
2018-07-14T20:07:52.325Z,9.80
2018-07-14T20:10:20.450Z,7.80
2018-07-14T20:12:48.565Z,7.50
2018-07-14T20:15:16.658Z,7.50
2018-07-14T20:17:44.741Z,7.50
2018-07-14T20:20:13.022Z,8.00
2018-07-14T20:22:41.113Z,7.50
2018-07-14T20:25:08.545Z,7.70
2018-07-14T20:27:36.705Z,7.60
2018-07-14T20:30:05.010Z,7.40
2018-07-14T20:32:33.230Z,7.20
2018-07-14T20:35:01.354Z,7.40
2018-07-14T20:37:29.391Z,7.80
2018-07-14T20:39:57.477Z,7.90
2018-07-14T20:42:25.673Z,7.70
2018-07-14T20:44:53.757Z,7.60
2018-07-14T20:47:21.923Z,8.00
2018-07-14T20:49:50.083Z,8.30
2018-07-14T20:52:18.992Z,8.40
2018-07-14T20:54:47.259Z,8.80
2018-07-14T20:57:15.318Z,8.20
2018-07-14T20:59:43.425Z,7.80
2018-07-14T21:02:11.537Z,7.50
2018-07-14T21:04:39.614Z,7.60
2018-07-14T21:07:07.704Z,7.90
2018-07-14T21:09:35.796Z,8.00
2018-07-14T21:12:03.950Z,8.10
2018-07-14T21:14:32.038Z,8.00
2018-07-14T21:17:00.171Z,8.10
2018-07-14T21:19:28.365Z,8.00
2018-07-14T21:21:55.799Z,8.30
2018-07-14T21:24:23.204Z,8.10
2018-07-14T21:26:50.628Z,8.10
2018-07-14T21:29:18.702Z,8.50
2018-07-14T21:31:46.793Z,8.60
2018-07-14T21:34:15.138Z,9.00
2018-07-14T21:36:43.224Z,9.50
2018-07-14T21:39:11.301Z,10.30
2018-07-14T21:41:39.409Z,10.50
2018-07-14T21:49:01.765Z,10.50
2018-07-14T21:51:29.197Z,10.50
2018-07-14T21:53:56.605Z,11.70
2018-07-14T21:56:24.029Z,11.80
2018-07-14T21:58:52.145Z,12.10
2018-07-14T22:01:25.498Z,11.40
2018-07-14T22:03:53.589Z,12.40
2018-07-14T22:08:49.581Z,12.00
2018-07-14T22:11:17.700Z,11.50
2018-07-14T22:13:45.770Z,10.90
2018-07-14T22:16:14.001Z,10.10
2018-07-14T22:18:42.249Z,10.10
2018-07-14T22:21:10.453Z,10.10
2018-07-14T22:23:38.545Z,10.00
2018-07-14T22:26:06.631Z,10.00
2018-07-14T22:28:34.709Z,10.00
2018-07-14T22:31:02.802Z,10.00
2018-07-14T22:33:30.874Z,9.90
2018-07-14T22:35:58.977Z,9.90
2018-07-14T22:38:27.037Z,9.90
2018-07-14T22:40:55.135Z,9.90
2018-07-14T22:43:23.274Z,10.20
2018-07-14T22:45:51.361Z,10.70
2018-07-14T22:48:19.437Z,10.60
2018-07-14T22:50:47.545Z,11.10
2018-07-14T22:55:43.553Z,11.20
2018-07-14T22:58:11.633Z,11.40
2018-07-14T23:00:39.768Z,11.80
2018-07-14T23:03:07.873Z,11.80
2018-07-14T23:05:35.969Z,11.80
2018-07-14T23:08:04.068Z,11.90
2018-07-14T23:10:32.265Z,12.20
2018-07-14T23:13:00.349Z,12.10
2018-07-14T23:15:28.438Z,12.20
2018-07-14T23:17:56.521Z,12.50
2018-07-14T23:20:24.601Z,12.60
2018-07-14T23:22:52.722Z,12.50
2018-07-14T23:25:20.794Z,12.70
2018-07-14T23:27:48.901Z,12.70
2018-07-14T23:30:16.985Z,12.90
2018-07-14T23:35:12.926Z,13.10
2018-07-14T23:37:41.019Z,13.30
2018-07-14T23:40:09.116Z,13.50
2018-07-14T23:42:37.197Z,13.70
2018-07-14T23:45:05.341Z,13.70
2018-07-14T23:47:33.425Z,14.10
2018-07-14T23:50:01.514Z,14.10
2018-07-14T23:52:29.613Z,14.20
2018-07-14T23:54:57.845Z,14.20
2018-07-14T23:57:25.925Z,14.40
2018-07-14T23:59:53.988Z,14.60
